Weather at Long Seridan Airport

Public forecast

Using degrees Celsius for public forecast. Weather courtesy of forecast.io.

Closest aviation weather report (METAR) to Long Seridan Airport

Closest report is Brunei International Airport, 59.1 nm (109.5 km) N.

2024/04/18 04:30 (retrieved 20 minutes ago)

WBSB 180430Z 29007KT 9999 SCT015 FEW016CB BKN300 33/29 Q1009 NOSIG

Closest aviation forecast (TAF) to Long Seridan Airport

Forecast is more than 12 hours old.

Closest forecast is Aden Adde International Airport, 4,182.4 nm (7,745.9 km) W.

2024/04/17 12:54 (retrieved 16 hours ago)

TAF HCMM 171100Z 1712/1818 20013KT 9999 SCT026 BECMG 1722/1803 19007KT -RA SCT020 BKN080 BECMG 1808/1811 21012KT NSW SCT025